Time;durP1;ratioP1;P1;durP2;ratioP2;P2;SDS_P1;SDS_P2;PMS_P1;PMS_P2;Temp;Humidity;BMP_temperature;BMP_pressure;BME280_temperature;BME280_humidity;BME280_pressure;Samples;Min_cycle;Max_cycle;Signal;HPM_P1;HPM_P2
2022/05/08 00:00:04;;;;;;;19.67;3.47;;;6.80;99.90;;;;;;5091948;28;20047;-74
2022/05/08 00:02:30;;;;;;;20.00;3.85;;;6.80;99.90;;;;;;5091900;28;20140;-75
2022/05/08 00:04:56;;;;;;;21.30;3.42;;;7.20;99.90;;;;;;5092122;28;20086;-75
2022/05/08 00:07:22;;;;;;;19.73;3.88;;;6.80;99.90;;;;;;5091368;28;20128;-74
2022/05/08 00:09:49;;;;;;;18.63;3.45;;;6.70;99.90;;;;;;5092273;28;20055;-74
2022/05/08 00:12:16;;;;;;;15.60;2.88;;;6.80;99.90;;;;;;5092169;28;20074;-75
2022/05/08 00:14:43;;;;;;;17.15;4.03;;;6.70;99.90;;;;;;5091381;28;20044;-75
2022/05/08 00:17:13;;;;;;;14.88;3.10;;;7.10;99.90;;;;;;5091347;28;20032;-74
2022/05/08 00:19:40;;;;;;;18.77;3.75;;;6.60;99.90;;;;;;5091980;28;20044;-74
2022/05/08 00:22:06;;;;;;;11.10;2.30;;;6.50;99.90;;;;;;5091535;28;20044;-74
2022/05/08 00:24:35;;;;;;;15.35;3.20;;;6.40;99.90;;;;;;5073973;28;20039;-74
2022/05/08 00:27:00;;;;;;;14.25;3.53;;;6.40;99.90;;;;;;5091193;28;20507;-74
2022/05/08 00:29:26;;;;;;;11.48;2.40;;;6.40;99.90;;;;;;5069515;28;20127;-75
2022/05/08 00:31:52;;;;;;;12.15;2.70;;;6.30;99.90;;;;;;5069898;28;20040;-75
2022/05/08 00:34:17;;;;;;;16.17;3.58;;;6.30;99.90;;;;;;5082874;28;20105;-75
2022/05/08 00:36:43;;;;;;;11.43;3.05;;;6.20;99.90;;;;;;5072775;28;20043;-74
2022/05/08 00:39:09;;;;;;;11.93;2.60;;;6.20;99.90;;;;;;5067811;28;20115;-74
2022/05/08 00:41:34;;;;;;;12.32;3.30;;;6.10;99.90;;;;;;5071032;28;20045;-75
2022/05/08 00:44:00;;;;;;;14.15;3.60;;;6.00;99.90;;;;;;5054071;28;20456;-74
2022/05/08 00:46:28;;;;;;;15.50;3.80;;;6.00;99.90;;;;;;5091170;28;20074;-74
2022/05/08 00:48:53;;;;;;;7.75;2.70;;;6.00;99.90;;;;;;5051481;28;20083;-74
2022/05/08 00:51:19;;;;;;;8.40;2.50;;;5.90;99.90;;;;;;5069818;28;20080;-74
2022/05/08 00:53:51;;;;;;;17.70;3.20;;;5.90;99.90;;;;;;5090868;28;20093;-74
2022/05/08 00:56:19;;;;;;;13.80;2.45;;;5.80;99.90;;;;;;5091101;28;20454;-74
2022/05/08 00:58:48;;;;;;;9.57;3.08;;;5.80;99.90;;;;;;5072499;28;20046;-74
2022/05/08 01:01:14;;;;;;;9.70;2.42;;;5.70;99.90;;;;;;5071051;28;20074;-74
2022/05/08 01:03:40;;;;;;;11.48;3.10;;;5.70;99.90;;;;;;5090984;28;20491;-75
2022/05/08 01:06:11;;;;;;;12.20;2.30;;;5.70;99.90;;;;;;5091051;28;20044;-74
2022/05/08 01:08:40;;;;;;;6.65;1.65;;;6.30;99.90;;;;;;5072274;28;20131;-74
2022/05/08 01:11:08;;;;;;;4.93;1.27;;;5.60;99.90;;;;;;5089069;28;20052;-74
2022/05/08 01:13:35;;;;;;;6.13;1.60;;;5.60;99.90;;;;;;5070522;28;20055;-75
2022/05/08 01:16:01;;;;;;;8.40;2.25;;;5.50;99.90;;;;;;5072429;28;20054;-74
2022/05/08 01:18:27;;;;;;;6.50;2.05;;;5.50;99.90;;;;;;5072568;28;20122;-75
2022/05/08 01:20:53;;;;;;;7.30;2.10;;;5.40;99.90;;;;;;5088774;28;20091;-74
2022/05/08 01:23:19;;;;;;;5.63;1.92;;;5.40;99.90;;;;;;5072251;28;20044;-74
2022/05/08 01:25:53;;;;;;;5.28;1.30;;;5.40;99.90;;;;;;5090199;28;20048;-74
2022/05/08 01:28:20;;;;;;;6.47;1.95;;;5.30;99.90;;;;;;5089571;28;20123;-74
2022/05/08 01:30:48;;;;;;;11.52;2.50;;;5.30;99.90;;;;;;5072109;28;20052;-73
2022/05/08 01:33:14;;;;;;;11.85;3.10;;;5.50;99.90;;;;;;5090132;28;20513;-74
2022/05/08 01:35:43;;;;;;;10.18;2.90;;;5.30;99.90;;;;;;5090418;28;20089;-74
2022/05/08 01:38:12;;;;;;;7.20;2.25;;;5.20;99.90;;;;;;5090244;28;20036;-74
2022/05/08 01:40:37;;;;;;;9.02;2.53;;;5.10;99.90;;;;;;5051724;28;20077;-74
2022/05/08 01:43:04;;;;;;;12.65;2.80;;;5.10;99.90;;;;;;5052154;28;20048;-75
2022/05/08 01:45:30;;;;;;;7.70;2.60;;;5.10;99.90;;;;;;5052461;28;20041;-74
2022/05/08 01:50:41;;;;;;;14.52;3.85;;;5.00;99.90;;;;;;5086720;28;20818;-74
2022/05/08 01:53:07;;;;;;;12.55;3.95;;;5.20;99.90;;;;;;5072137;28;20095;-74
2022/05/08 01:55:32;;;;;;;12.43;3.70;;;5.00;99.90;;;;;;5089749;28;20040;-74
2022/05/08 01:57:58;;;;;;;13.75;2.95;;;5.00;99.90;;;;;;5072278;28;20060;-74
2022/05/08 02:00:26;;;;;;;13.90;3.67;;;4.90;99.90;;;;;;5064534;28;20526;-72
2022/05/08 02:02:53;;;;;;;7.30;2.63;;;5.30;99.90;;;;;;5084466;28;20106;-74
2022/05/08 02:05:20;;;;;;;5.75;1.90;;;4.80;99.90;;;;;;5070046;28;20399;-74
2022/05/08 02:07:47;;;;;;;3.75;1.30;;;4.70;99.90;;;;;;5052038;28;20056;-74
2022/05/08 02:10:14;;;;;;;9.00;1.55;;;4.60;99.90;;;;;;5070607;28;20507;-72
2022/05/08 02:12:41;;;;;;;7.45;2.22;;;4.50;99.90;;;;;;5087057;28;20340;-73
2022/05/08 02:15:08;;;;;;;10.10;2.95;;;4.60;99.90;;;;;;5074588;28;20457;-74
2022/05/08 02:17:34;;;;;;;9.68;2.63;;;4.60;99.90;;;;;;5070293;28;20072;-72
2022/05/08 02:20:00;;;;;;;12.38;3.00;;;4.60;99.90;;;;;;5071193;28;20052;-74
2022/05/08 02:22:26;;;;;;;7.07;2.80;;;4.60;99.90;;;;;;5084022;28;20460;-74
2022/05/08 02:24:52;;;;;;;10.63;2.70;;;4.60;99.90;;;;;;5072014;28;20098;-74
2022/05/08 02:27:18;;;;;;;6.50;1.80;;;4.60;99.90;;;;;;5074953;28;20040;-74
2022/05/08 02:29:48;;;;;;;11.82;2.25;;;4.50;99.90;;;;;;5082985;28;20051;-74
2022/05/08 02:32:14;;;;;;;15.05;3.15;;;4.80;99.90;;;;;;5064589;28;20067;-74
2022/05/08 02:34:40;;;;;;;12.82;4.03;;;4.40;99.90;;;;;;5069931;28;20124;-74
2022/05/08 02:37:06;;;;;;;13.80;3.10;;;4.40;99.90;;;;;;5069559;28;20138;-74
2022/05/08 02:39:32;;;;;;;9.32;2.30;;;4.40;99.90;;;;;;5054485;28;20056;-74
2022/05/08 02:41:57;;;;;;;6.95;2.20;;;4.90;99.90;;;;;;5090955;28;20104;-73
2022/05/08 02:44:23;;;;;;;8.50;2.53;;;4.30;99.90;;;;;;5076247;28;20051;-74
2022/05/08 02:46:48;;;;;;;16.30;3.30;;;4.30;99.90;;;;;;5073324;28;20407;-73
2022/05/08 02:49:14;;;;;;;9.38;2.65;;;4.30;99.90;;;;;;5073212;28;20345;-74
2022/05/08 02:51:40;;;;;;;11.05;3.10;;;4.30;99.90;;;;;;5073105;28;20088;-74
2022/05/08 02:54:05;;;;;;;8.93;2.25;;;4.10;99.90;;;;;;5041712;28;20096;-75
2022/05/08 02:59:15;;;;;;;8.02;2.30;;;4.20;99.90;;;;;;5061779;28;20049;-74
2022/05/08 03:01:41;;;;;;;12.60;3.13;;;4.10;99.90;;;;;;5052822;28;20530;-73
2022/05/08 03:04:07;;;;;;;12.43;3.33;;;4.10;99.90;;;;;;5042408;28;20089;-74
2022/05/08 03:06:32;;;;;;;8.88;3.08;;;4.20;99.90;;;;;;5072937;28;20052;-74
2022/05/08 03:08:58;;;;;;;11.80;3.35;;;4.10;99.90;;;;;;5072955;28;20058;-74
2022/05/08 03:11:26;;;;;;;8.38;2.40;;;4.10;99.90;;;;;;5042492;28;20052;-73
2022/05/08 03:13:53;;;;;;;7.57;2.50;;;4.10;99.90;;;;;;5072138;28;20552;-74
2022/05/08 03:16:19;;;;;;;9.52;2.25;;;4.10;99.90;;;;;;5072416;28;20049;-74
2022/05/08 03:18:45;;;;;;;7.07;2.40;;;4.10;99.90;;;;;;5072460;28;20071;-73
2022/05/08 03:21:13;;;;;;;10.80;3.08;;;4.00;99.90;;;;;;5072137;28;20044;-74
2022/05/08 03:23:40;;;;;;;10.30;3.25;;;4.00;99.90;;;;;;5072358;28;20044;-74
2022/05/08 03:26:06;;;;;;;8.82;3.58;;;3.90;99.90;;;;;;5071917;28;20063;-74
2022/05/08 03:28:32;;;;;;;7.25;3.50;;;3.80;99.90;;;;;;5072256;28;20127;-74
2022/05/08 03:31:01;;;;;;;4.95;2.55;;;3.80;99.90;;;;;;5072204;28;20059;-74
2022/05/08 03:33:31;;;;;;;3.15;1.88;;;3.70;99.90;;;;;;5072194;28;20808;-74
2022/05/08 03:35:58;;;;;;;4.28;1.60;;;3.70;99.90;;;;;;5071341;28;20040;-74
2022/05/08 03:38:24;;;;;;;6.53;1.58;;;3.70;99.90;;;;;;5071871;28;20053;-74
2022/05/08 03:40:50;;;;;;;4.45;1.70;;;3.70;99.90;;;;;;5071250;28;20155;-74
2022/05/08 03:43:16;;;;;;;4.07;1.70;;;3.60;99.90;;;;;;5071780;28;20432;-73
2022/05/08 03:45:41;;;;;;;4.45;1.80;;;3.60;99.90;;;;;;5053711;28;20503;-73
2022/05/08 03:48:07;;;;;;;4.00;2.22;;;3.60;99.90;;;;;;5054031;28;20131;-74
2022/05/08 03:50:33;;;;;;;4.70;2.10;;;3.60;99.90;;;;;;5077091;28;20054;-73
2022/05/08 03:53:01;;;;;;;7.43;2.40;;;4.10;99.90;;;;;;5074230;28;20060;-74
2022/05/08 03:55:27;;;;;;;6.07;2.53;;;3.50;99.90;;;;;;5090112;28;20043;-74
2022/05/08 03:57:53;;;;;;;7.70;2.22;;;3.50;99.90;;;;;;5090407;28;20146;-74
2022/05/08 04:00:19;;;;;;;9.65;2.65;;;3.50;99.90;;;;;;5091484;28;20172;-72
2022/05/08 04:02:45;;;;;;;7.65;2.42;;;3.50;99.90;;;;;;5069218;28;20044;-73
2022/05/08 04:05:11;;;;;;;6.35;2.47;;;3.50;99.90;;;;;;5092001;28;20058;-74
2022/05/08 04:07:40;;;;;;;4.38;2.08;;;3.60;99.90;;;;;;5071335;28;20051;-74
2022/05/08 04:10:07;;;;;;;7.40;1.80;;;3.50;99.90;;;;;;5032116;28;20184;-74
2022/05/08 04:12:33;;;;;;;4.55;1.90;;;3.50;99.90;;;;;;5070292;28;20119;-73
2022/05/08 04:14:59;;;;;;;5.57;1.80;;;3.50;99.90;;;;;;5051113;28;20052;-74
2022/05/08 04:17:28;;;;;;;4.97;1.40;;;3.50;99.90;;;;;;5071083;28;20779;-73
2022/05/08 04:19:57;;;;;;;3.03;1.30;;;3.50;99.90;;;;;;5088027;28;20052;-74
2022/05/08 04:25:10;;;;;;;4.78;1.20;;;3.60;99.90;;;;;;5091734;28;20047;-74
2022/05/08 04:27:36;;;;;;;7.90;1.73;;;3.50;99.90;;;;;;5090975;28;20051;-74
2022/05/08 04:30:03;;;;;;;4.07;1.20;;;3.50;99.90;;;;;;5089335;28;20048;-74
2022/05/08 04:32:29;;;;;;;5.10;1.30;;;3.50;99.90;;;;;;5091200;28;20514;-74
2022/05/08 04:34:54;;;;;;;4.82;1.98;;;3.60;99.90;;;;;;5091063;28;20048;-74
2022/05/08 04:37:20;;;;;;;6.13;2.00;;;3.70;99.90;;;;;;5091160;28;20040;-73
2022/05/08 04:39:45;;;;;;;5.35;1.85;;;3.60;99.90;;;;;;5079495;28;20048;-74
2022/05/08 04:42:11;;;;;;;5.75;2.15;;;3.60;99.90;;;;;;5070820;28;20404;-74
2022/05/08 04:44:37;;;;;;;7.28;2.75;;;3.70;99.90;;;;;;5049399;28;20435;-73
2022/05/08 04:47:03;;;;;;;8.13;2.70;;;3.70;99.90;;;;;;5068938;28;20062;-73
2022/05/08 04:49:29;;;;;;;6.95;2.28;;;3.70;99.90;;;;;;5070242;28;20405;-73
2022/05/08 04:51:55;;;;;;;9.00;2.90;;;3.80;99.90;;;;;;5052334;28;20524;-74
2022/05/08 04:54:22;;;;;;;10.32;3.10;;;3.80;99.90;;;;;;5071604;28;20094;-73
2022/05/08 04:56:48;;;;;;;10.80;3.45;;;4.40;99.90;;;;;;5071834;28;20055;-73
2022/05/08 04:59:15;;;;;;;11.07;3.65;;;3.90;99.90;;;;;;5071702;28;20045;-72
2022/05/08 05:01:41;;;;;;;12.73;3.97;;;3.90;99.90;;;;;;5075480;28;20052;-73
2022/05/08 05:04:06;;;;;;;13.13;3.75;;;4.00;99.90;;;;;;5056298;28;20432;-74
2022/05/08 05:06:32;;;;;;;8.18;3.65;;;4.10;99.90;;;;;;5085662;28;20035;-73
2022/05/08 05:08:58;;;;;;;12.50;4.55;;;4.20;99.90;;;;;;5075257;28;20036;-74
2022/05/08 05:11:24;;;;;;;12.70;4.75;;;4.40;99.90;;;;;;5077694;28;20044;-73
2022/05/08 05:13:50;;;;;;;13.55;3.78;;;4.40;99.90;;;;;;5071869;28;20053;-74
2022/05/08 05:16:16;;;;;;;16.45;4.20;;;4.50;99.90;;;;;;5051842;28;20044;-74
2022/05/08 05:18:42;;;;;;;14.30;4.15;;;4.60;99.90;;;;;;5074621;28;20065;-74
2022/05/08 05:21:07;;;;;;;11.15;4.13;;;4.70;99.90;;;;;;5075591;28;20062;-74
2022/05/08 05:23:36;;;;;;;14.10;4.95;;;4.80;99.90;;;;;;5074835;28;20156;-72
2022/05/08 05:26:02;;;;;;;15.00;3.70;;;5.00;99.90;;;;;;5063403;28;20098;-74
2022/05/08 05:28:29;;;;;;;15.88;4.53;;;5.10;99.90;;;;;;5079639;28;20428;-74
2022/05/08 05:30:55;;;;;;;14.95;4.45;;;5.50;99.90;;;;;;5073504;28;20488;-74
2022/05/08 05:33:20;;;;;;;9.52;4.57;;;5.50;99.90;;;;;;5053829;28;20055;-73
2022/05/08 05:35:46;;;;;;;13.20;4.00;;;5.60;99.90;;;;;;5069225;28;20041;-73
2022/05/08 05:38:11;;;;;;;12.60;4.15;;;5.80;99.90;;;;;;5062630;28;20047;-74
2022/05/08 05:40:37;;;;;;;18.10;4.45;;;6.00;99.90;;;;;;5078136;28;20102;-73
2022/05/08 05:43:03;;;;;;;19.23;4.78;;;6.20;99.90;;;;;;5077479;28;20483;-74
2022/05/08 05:45:28;;;;;;;16.42;4.68;;;6.40;99.90;;;;;;5074394;28;20082;-74
2022/05/08 05:47:54;;;;;;;12.60;4.32;;;7.30;99.90;;;;;;5064270;28;20416;-73
2022/05/08 05:50:21;;;;;;;16.88;4.10;;;6.90;99.90;;;;;;5062441;28;20398;-75
2022/05/08 05:52:47;;;;;;;13.10;4.90;;;6.90;99.90;;;;;;5076536;28;20147;-74
2022/05/08 05:55:13;;;;;;;14.35;4.00;;;7.10;99.90;;;;;;5078694;28;20047;-74
2022/05/08 05:57:39;;;;;;;21.33;3.75;;;7.40;99.90;;;;;;5084508;28;20036;-73
2022/05/08 06:00:09;;;;;;;21.13;4.25;;;7.60;99.90;;;;;;5070818;28;20048;-73
2022/05/08 06:02:35;;;;;;;11.23;3.75;;;7.70;99.90;;;;;;5089540;28;20036;-75
2022/05/08 06:05:01;;;;;;;13.18;3.38;;;7.80;99.90;;;;;;5089150;28;20036;-74
2022/05/08 06:07:27;;;;;;;17.77;3.83;;;8.00;99.90;;;;;;5073853;28;20526;-74
2022/05/08 06:09:52;;;;;;;15.63;4.13;;;8.50;99.90;;;;;;5063438;28;20044;-75
2022/05/08 06:12:18;;;;;;;9.85;3.03;;;8.50;99.90;;;;;;5088889;28;20050;-74
2022/05/08 06:14:46;;;;;;;14.07;3.65;;;8.50;99.90;;;;;;5088641;28;20123;-74
2022/05/08 06:17:12;;;;;;;11.98;3.15;;;8.60;99.90;;;;;;5061427;28;20158;-73
2022/05/08 06:19:38;;;;;;;14.43;2.63;;;8.70;99.90;;;;;;5063172;28;20500;-74
2022/05/08 06:22:04;;;;;;;16.55;2.83;;;8.90;99.90;;;;;;5083236;28;20090;-74
2022/05/08 06:24:30;;;;;;;10.00;2.13;;;9.00;99.90;;;;;;5093219;28;20044;-75
2022/05/08 06:26:56;;;;;;;8.73;2.42;;;9.10;99.90;;;;;;5088181;28;20040;-74
2022/05/08 06:29:22;;;;;;;11.85;2.30;;;9.30;99.90;;;;;;5085566;28;20063;-74
2022/05/08 06:31:50;;;;;;;15.02;2.50;;;9.40;99.90;;;;;;5092854;28;20119;-74
2022/05/08 06:34:16;;;;;;;9.93;2.65;;;9.80;99.90;;;;;;5080256;28;20076;-75
2022/05/08 06:36:42;;;;;;;10.02;2.17;;;9.70;99.90;;;;;;5092800;28;20048;-75
2022/05/08 06:39:08;;;;;;;11.02;1.88;;;9.80;99.90;;;;;;5092995;28;20047;-76
2022/05/08 06:41:34;;;;;;;9.77;1.80;;;10.20;99.90;;;;;;5092304;28;20040;-74
2022/05/08 06:43:59;;;;;;;10.63;2.15;;;10.00;99.90;;;;;;5093318;28;20120;-76
2022/05/08 06:46:25;;;;;;;12.38;1.83;;;10.10;99.90;;;;;;5092540;28;20052;-74
2022/05/08 06:48:51;;;;;;;17.40;2.42;;;10.20;99.90;;;;;;5062988;28;20051;-77
2022/05/08 06:51:16;;;;;;;8.73;1.98;;;10.30;99.90;;;;;;5074485;28;20059;-75
2022/05/08 06:53:46;;;;;;;10.77;1.65;;;10.70;99.90;;;;;;5090231;28;20052;-74
2022/05/08 06:56:13;;;;;;;14.68;1.95;;;10.60;99.90;;;;;;5088281;28;20523;-75
2022/05/08 07:01:34;;;;;;;12.57;1.85;;;11.00;99.90;;;;;;5092127;28;20052;-75
2022/05/08 07:04:00;;;;;;;9.73;1.85;;;11.10;99.90;;;;;;5091752;28;20036;-76
2022/05/08 07:06:26;;;;;;;9.77;2.00;;;11.30;99.90;;;;;;5089373;28;20044;-76
2022/05/08 07:08:51;;;;;;;12.00;1.75;;;11.50;99.90;;;;;;5089777;28;20036;-75
2022/05/08 07:11:17;;;;;;;12.07;1.67;;;11.60;99.90;;;;;;5087208;28;20043;-75
2022/05/08 07:13:43;;;;;;;8.43;1.45;;;11.70;99.90;;;;;;5070911;28;20373;-75
2022/05/08 07:16:08;;;;;;;7.25;1.50;;;11.80;99.90;;;;;;5090204;28;20040;-74
2022/05/08 07:18:34;;;;;;;9.93;1.33;;;11.70;99.90;;;;;;5090460;28;20035;-76
2022/05/08 07:20:59;;;;;;;10.80;1.40;;;11.60;99.90;;;;;;5080907;28;20047;-75
2022/05/08 07:23:25;;;;;;;12.25;1.67;;;11.50;99.90;;;;;;5083380;28;20487;-75
2022/05/08 07:25:51;;;;;;;11.63;1.48;;;11.60;99.90;;;;;;5090223;28;20044;-76
2022/05/08 07:28:16;;;;;;;10.07;1.80;;;11.70;99.90;;;;;;5088506;28;20079;-75
2022/05/08 07:30:42;;;;;;;12.85;1.98;;;11.80;99.90;;;;;;5072702;28;20040;-75
2022/05/08 07:33:08;;;;;;;7.82;1.25;;;12.00;99.90;;;;;;5072197;28;20033;-75
2022/05/08 07:38:21;;;;;;;9.10;1.40;;;12.20;99.90;;;;;;5091384;28;20056;-74
2022/05/08 07:40:48;;;;;;;10.25;1.73;;;12.20;99.90;;;;;;5091561;28;20101;-76
2022/05/08 07:43:15;;;;;;;8.75;1.55;;;12.20;99.90;;;;;;5091796;28;20048;-77
2022/05/08 07:45:43;;;;;;;17.75;2.22;;;12.50;99.90;;;;;;5080127;28;20456;-75
2022/05/08 07:48:09;;;;;;;10.15;1.45;;;12.80;99.90;;;;;;5081774;28;20074;-76
2022/05/08 07:50:34;;;;;;;13.57;1.75;;;13.20;99.90;;;;;;5090963;28;20478;-75
2022/05/08 07:53:00;;;;;;;8.52;1.77;;;13.30;99.90;;;;;;5091670;28;20075;-75
2022/05/08 07:55:25;;;;;;;13.57;2.05;;;13.50;99.90;;;;;;5090911;28;20398;-77
2022/05/08 07:57:51;;;;;;;12.10;1.85;;;13.70;99.90;;;;;;5091611;28;20071;-75
2022/05/08 08:00:17;;;;;;;9.32;1.80;;;13.80;99.90;;;;;;5091729;28;20052;-74
2022/05/08 08:02:43;;;;;;;13.35;1.83;;;14.00;99.90;;;;;;5090756;28;20083;-74
2022/05/08 08:05:08;;;;;;;9.23;2.10;;;14.20;99.90;;;;;;5090822;28;20936;-76
2022/05/08 08:07:36;;;;;;;5.38;1.30;;;14.50;99.90;;;;;;5072886;28;20052;-76
2022/05/08 08:10:03;;;;;;;18.13;2.05;;;14.70;99.90;;;;;;5077852;28;20116;-77
2022/05/08 08:12:28;;;;;;;9.98;1.58;;;14.80;99.90;;;;;;5072517;28;20500;-77
2022/05/08 08:14:54;;;;;;;16.60;1.65;;;14.70;99.90;;;;;;5091299;28;20114;-76
2022/05/08 08:17:21;;;;;;;12.80;1.80;;;15.00;99.90;;;;;;5090664;28;20059;-83
2022/05/08 08:19:47;;;;;;;9.93;2.03;;;15.70;99.90;;;;;;5069538;28;20480;-77
2022/05/08 08:22:12;;;;;;;11.68;1.65;;;15.40;99.90;;;;;;5070952;28;20101;-78
2022/05/08 08:24:40;;;;;;;9.13;2.42;;;15.60;99.90;;;;;;5086560;28;20105;-74
2022/05/08 08:27:07;;;;;;;12.68;2.53;;;15.50;99.90;;;;;;5083355;28;20076;-76
2022/05/08 08:29:33;;;;;;;9.27;1.77;;;15.60;99.90;;;;;;5091634;28;20127;-77
2022/05/08 08:31:59;;;;;;;13.10;2.67;;;15.70;99.90;;;;;;5088577;28;20403;-76
2022/05/08 08:34:26;;;;;;;10.77;1.70;;;15.70;99.90;;;;;;5085417;28;20040;-78
2022/05/08 08:36:52;;;;;;;12.15;1.85;;;15.60;99.90;;;;;;5070651;28;20546;-76
2022/05/08 08:39:18;;;;;;;7.90;1.85;;;15.90;99.90;;;;;;5086380;28;20529;-76
2022/05/08 08:41:52;;;;;;;10.80;1.65;;;16.00;99.90;;;;;;5079040;28;20492;-77
2022/05/08 08:49:52;;;;;;;8.90;2.05;;;16.00;99.90;;;;;;5095687;28;20039;-75
2022/05/08 08:52:21;;;;;;;7.72;1.60;;;16.30;99.90;;;;;;5084497;28;20052;-76
2022/05/08 08:54:47;;;;;;;13.43;2.20;;;16.70;99.90;;;;;;5096376;28;20050;-75
2022/05/08 08:57:13;;;;;;;10.95;1.70;;;16.40;99.90;;;;;;5092724;28;20402;-76
2022/05/08 08:59:39;;;;;;;11.52;1.75;;;16.50;99.90;;;;;;5076677;28;20078;-77
2022/05/08 09:02:15;;;;;;;13.82;2.20;;;16.70;99.90;;;;;;5078441;28;20076;-76
2022/05/08 09:04:41;;;;;;;8.90;2.10;;;16.70;99.90;;;;;;5079610;28;20063;-77
2022/05/08 09:07:44;;;;;;;11.18;2.00;;;17.00;99.90;;;;;;5091356;28;20496;-77
2022/05/08 09:10:16;;;;;;;13.55;1.95;;;17.20;99.90;;;;;;5083059;28;20043;-76
2022/05/08 09:13:02;;;;;;;13.63;2.50;;;17.20;99.90;;;;;;5089084;28;20044;-76
2022/05/08 09:15:31;;;;;;;12.57;1.92;;;17.30;99.90;;;;;;5089141;28;20052;-76
2022/05/08 09:18:06;;;;;;;13.18;1.75;;;17.00;99.90;;;;;;5069068;28;20131;-77
2022/05/08 09:20:35;;;;;;;15.50;2.25;;;17.10;99.90;;;;;;5085482;28;20044;-75
2022/05/08 09:23:00;;;;;;;11.52;2.25;;;17.40;99.90;;;;;;5089032;28;20071;-76
2022/05/08 09:25:51;;;;;;;12.18;1.77;;;17.50;99.90;;;;;;5099644;28;20390;-76
2022/05/08 09:28:43;;;;;;;10.82;2.05;;;17.40;99.50;;;;;;5083547;28;20085;-76
2022/05/08 09:31:14;;;;;;;14.50;2.08;;;17.30;99.60;;;;;;5078445;28;20448;-78
2022/05/08 09:33:41;;;;;;;11.18;1.90;;;17.50;99.90;;;;;;5081499;28;20569;-77
2022/05/08 09:36:27;;;;;;;9.38;1.98;;;17.50;99.90;;;;;;5087914;28;20043;-76
2022/05/08 09:38:57;;;;;;;8.73;1.73;;;17.50;98.20;;;;;;5078727;28;20059;-78
2022/05/08 09:41:31;;;;;;;10.65;2.58;;;17.70;99.70;;;;;;5095110;28;20556;-77
2022/05/08 09:44:17;;;;;;;12.13;2.40;;;17.70;99.10;;;;;;5090515;28;20048;-77
2022/05/08 09:46:44;;;;;;;12.63;2.45;;;17.80;98.80;;;;;;5100994;28;20126;-78
2022/05/08 09:49:19;;;;;;;8.18;1.88;;;18.00;99.30;;;;;;5094983;28;20600;-75
2022/05/08 09:51:45;;;;;;;;;;;18.00;99.30;;;;;;5093854;28;20422;-78
2022/05/08 09:54:14;;;;;;;10.55;2.03;;;17.90;97.60;;;;;;5100170;28;19992;-77
2022/05/08 09:56:42;;;;;;;11.20;2.00;;;18.00;99.20;;;;;;5093508;28;20040;-77
2022/05/08 09:59:10;;;;;;;8.98;1.70;;;18.20;99.80;;;;;;5097255;28;20044;-77
2022/05/08 10:01:38;;;;;;;9.25;2.05;;;18.20;98.30;;;;;;5097638;28;20051;-76
2022/05/08 10:04:03;;;;;;;13.60;1.83;;;18.20;96.70;;;;;;5089469;28;20131;-76
2022/05/08 10:06:36;;;;;;;9.40;2.03;;;18.00;96.80;;;;;;5090527;28;20119;-81
2022/05/08 10:14:35;;;;;;;14.80;2.22;;;18.30;98.30;;;;;;5077102;28;20416;-79
2022/05/08 10:17:04;;;;;;;9.02;1.63;;;18.20;97.30;;;;;;5094792;28;20043;-74
2022/05/08 10:19:29;;;;;;;13.35;2.13;;;18.30;98.20;;;;;;5084286;28;20063;-76
2022/05/08 10:22:12;;;;;;;10.20;1.67;;;18.50;98.00;;;;;;5085205;28;20032;-73
2022/05/08 10:24:47;;;;;;;8.55;1.70;;;18.30;96.20;;;;;;5041226;28;20040;-74
2022/05/08 10:27:31;;;;;;;17.20;2.10;;;18.40;96.80;;;;;;5088670;28;20054;-75
2022/05/08 10:30:17;;;;;;;11.18;1.95;;;18.60;97.00;;;;;;5089433;28;20047;-74
2022/05/08 10:32:46;;;;;;;13.32;2.78;;;18.80;97.30;;;;;;5068423;28;20052;-75
2022/05/08 10:35:26;;;;;;;12.98;1.83;;;18.80;97.50;;;;;;5088175;28;20388;-76
2022/05/08 10:38:07;;;;;;;9.20;1.88;;;19.10;97.70;;;;;;5070412;28;20081;-74
2022/05/08 10:40:34;;;;;;;10.70;1.83;;;18.90;95.60;;;;;;5084265;28;20063;-75
2022/05/08 10:43:10;;;;;;;11.60;1.67;;;19.00;95.90;;;;;;5092573;28;20096;-74
2022/05/08 10:45:40;;;;;;;10.57;1.75;;;19.00;95.80;;;;;;5080446;28;20400;-75
2022/05/08 10:48:18;;;;;;;7.15;1.67;;;18.90;96.40;;;;;;5079908;28;20041;-76
2022/05/08 10:50:49;;;;;;;10.00;1.60;;;19.20;95.00;;;;;;5082210;28;20052;-74
2022/05/08 10:53:32;;;;;;;13.23;2.55;;;19.20;94.30;;;;;;5087516;28;20102;-73
2022/05/08 10:56:05;;;;;;;13.52;2.08;;;19.30;94.80;;;;;;5088949;28;20135;-74
2022/05/08 10:58:32;;;;;;;14.67;2.70;;;19.30;94.30;;;;;;5082625;28;20083;-74
2022/05/08 11:01:00;;;;;;;14.82;2.10;;;19.70;95.40;;;;;;5091857;28;20048;-75
2022/05/08 11:03:27;;;;;;;8.15;1.83;;;19.50;95.10;;;;;;5093007;28;20053;-75
2022/05/08 11:05:53;;;;;;;14.07;1.92;;;19.60;95.40;;;;;;5094271;28;20539;-74
2022/05/08 11:08:29;;;;;;;17.63;1.90;;;19.70;94.50;;;;;;5086464;28;20040;-74
2022/05/08 11:11:04;;;;;;;10.07;1.85;;;19.70;92.90;;;;;;5097458;28;20052;-74
2022/05/08 11:13:44;;;;;;;11.20;2.58;;;19.70;92.70;;;;;;5095141;28;20044;-74
2022/05/08 11:16:12;;;;;;;9.73;1.70;;;19.70;92.90;;;;;;5091717;28;20035;-74
2022/05/08 11:18:38;;;;;;;10.25;2.08;;;19.90;92.80;;;;;;5091341;28;20044;-73
2022/05/08 11:21:08;;;;;;;10.77;2.10;;;19.90;92.90;;;;;;5090906;28;20050;-75
2022/05/08 11:23:36;;;;;;;9.77;2.05;;;19.90;92.10;;;;;;5088086;28;20056;-74
2022/05/08 11:26:05;;;;;;;10.73;1.85;;;20.00;91.90;;;;;;5079980;28;20062;-74
2022/05/08 11:28:32;;;;;;;14.02;1.98;;;19.90;91.50;;;;;;5089141;28;20083;-72
2022/05/08 11:30:59;;;;;;;7.55;2.05;;;19.60;90.90;;;;;;5091335;28;20107;-74
2022/05/08 11:36:23;;;;;;;8.57;1.73;;;19.90;90.60;;;;;;5092549;28;20079;-74
2022/05/08 11:38:52;;;;;;;13.45;2.42;;;20.10;90.40;;;;;;5090935;28;20040;-74
2022/05/08 11:41:27;;;;;;;11.55;1.55;;;20.00;90.20;;;;;;5091480;28;20044;-73
2022/05/08 11:43:58;;;;;;;11.65;1.75;;;19.90;88.60;;;;;;5089814;28;20044;-74
2022/05/08 11:46:38;;;;;;;9.68;2.20;;;20.10;90.50;;;;;;5091165;28;20090;-75
2022/05/08 11:49:13;;;;;;;10.38;1.75;;;20.40;90.30;;;;;;5072331;28;20872;-75
2022/05/08 11:51:49;;;;;;;10.05;2.03;;;20.40;86.70;;;;;;5090660;28;20048;-74
2022/05/08 11:54:21;;;;;;;12.15;1.77;;;20.30;89.00;;;;;;5083297;28;20419;-74
2022/05/08 11:56:51;;;;;;;11.55;1.73;;;20.10;87.70;;;;;;5090201;28;20047;-73
2022/05/08 11:59:20;;;;;;;10.75;1.98;;;20.20;89.60;;;;;;5090515;28;20842;-75
2022/05/08 12:01:51;;;;;;;10.15;2.47;;;20.30;90.10;;;;;;5090800;28;20131;-73
2022/05/08 12:04:28;;;;;;;10.30;1.92;;;20.50;90.90;;;;;;5082108;28;20036;-72
2022/05/08 12:07:00;;;;;;;7.55;1.60;;;20.50;85.00;;;;;;5071855;28;20048;-74
2022/05/08 12:09:27;;;;;;;9.90;1.60;;;20.50;86.40;;;;;;5090679;28;20040;-74
2022/05/08 12:11:53;;;;;;;14.57;2.17;;;20.60;87.90;;;;;;5091280;28;20048;-75
2022/05/08 12:14:30;;;;;;;14.70;1.90;;;20.70;87.30;;;;;;5084506;28;20035;-75
2022/05/08 12:17:01;;;;;;;15.32;2.60;;;21.00;87.70;;;;;;5100903;28;20097;-74
2022/05/08 12:19:27;;;;;;;13.15;2.22;;;21.10;85.50;;;;;;5090419;28;20039;-74
2022/05/08 12:21:54;;;;;;;10.88;1.92;;;21.10;83.00;;;;;;5090837;28;20391;-73
2022/05/08 12:24:21;;;;;;;9.00;1.48;;;20.70;83.00;;;;;;5082498;28;20048;-75
2022/05/08 12:26:47;;;;;;;10.18;1.80;;;20.90;84.70;;;;;;5089922;28;20047;-76
2022/05/08 12:29:23;;;;;;;10.75;1.65;;;20.90;81.10;;;;;;5090132;28;20130;-74
2022/05/08 12:31:51;;;;;;;13.25;1.80;;;21.00;84.70;;;;;;5090730;28;20761;-76
2022/05/08 12:34:20;;;;;;;10.52;2.22;;;20.80;84.20;;;;;;5089210;28;20043;-73
2022/05/08 12:36:48;;;;;;;13.23;1.80;;;21.00;84.30;;;;;;5090842;28;20082;-75
2022/05/08 12:39:14;;;;;;;10.75;2.00;;;21.00;81.80;;;;;;5089592;28;20056;-74
2022/05/08 12:41:41;;;;;;;12.00;2.08;;;20.60;82.60;;;;;;5072243;28;20119;-73
2022/05/08 12:44:07;;;;;;;10.85;1.98;;;20.50;81.50;;;;;;5072129;28;20122;-75
2022/05/08 12:46:34;;;;;;;10.20;1.75;;;20.90;81.30;;;;;;5089631;28;20044;-75
2022/05/08 12:49:02;;;;;;;11.93;2.22;;;20.90;81.20;;;;;;5082156;28;20392;-73
2022/05/08 12:51:33;;;;;;;10.05;1.77;;;21.20;80.90;;;;;;5075240;28;20123;-74
2022/05/08 12:54:02;;;;;;;11.05;2.13;;;21.20;78.80;;;;;;5089513;28;20165;-75
2022/05/08 12:56:32;;;;;;;10.60;1.55;;;21.00;80.50;;;;;;5081533;28;20024;-73
2022/05/08 13:01:44;;;;;;;9.75;1.90;;;20.80;78.80;;;;;;5082439;28;20119;-73
2022/05/08 13:04:11;;;;;;;8.80;1.98;;;21.00;78.90;;;;;;5089169;28;20055;-75
2022/05/08 13:06:37;;;;;;;12.73;1.90;;;20.80;78.60;;;;;;5088884;28;20522;-73
2022/05/08 13:09:06;;;;;;;7.88;1.70;;;20.80;77.80;;;;;;5089477;28;20122;-74
2022/05/08 13:11:32;;;;;;;10.82;2.00;;;21.10;77.60;;;;;;5088699;28;20487;-73
2022/05/08 13:13:58;;;;;;;11.13;1.80;;;21.20;77.70;;;;;;5088476;28;20032;-73
2022/05/08 13:16:24;;;;;;;10.00;2.70;;;20.80;75.90;;;;;;5088880;28;20571;-74
2022/05/08 13:18:50;;;;;;;12.70;1.52;;;21.20;78.20;;;;;;5089933;28;20111;-74